createdAt,value
2022-08-08T00:01:21.409Z,100718.15
2022-08-08T00:04:18.894Z,100720.65
2022-08-08T00:07:12.591Z,100719.30
2022-08-08T00:09:56.252Z,100721.87
2022-08-08T00:12:37.183Z,100716.23
2022-08-08T00:15:17.487Z,100720.05
2022-08-08T00:18:03.887Z,100724.03
2022-08-08T00:20:41.676Z,100721.67
2022-08-08T00:23:17.215Z,100725.17
2022-08-08T00:25:52.953Z,100726.80
2022-08-08T00:28:35.080Z,100723.95
2022-08-08T00:32:21.455Z,100727.86
2022-08-08T00:34:48.286Z,100726.84
2022-08-08T00:37:46.848Z,100725.65
2022-08-08T00:41:12.009Z,100725.39
2022-08-08T00:44:00.403Z,100724.47
2022-08-08T00:47:23.090Z,100722.08
2022-08-08T00:50:24.751Z,100723.77
2022-08-08T00:53:06.736Z,100724.90
2022-08-08T00:56:26.939Z,100726.56
2022-08-08T00:59:46.824Z,100724.68
2022-08-08T01:03:58.026Z,100729.10
2022-08-08T01:06:28.719Z,100728.35
2022-08-08T01:09:35.903Z,100726.08
2022-08-08T01:12:49.823Z,100731.17
2022-08-08T01:15:59.926Z,100731.27
2022-08-08T01:19:13.719Z,100734.40
2022-08-08T01:22:23.449Z,100732.61
2022-08-08T01:25:16.830Z,100733.31
2022-08-08T01:28:05.584Z,100726.85
2022-08-08T01:32:02.874Z,100728.10
2022-08-08T01:34:37.818Z,100730.23
2022-08-08T01:37:57.157Z,100730.51
2022-08-08T01:40:37.878Z,100732.09
2022-08-08T01:43:22.627Z,100730.34
2022-08-08T01:45:58.570Z,100733.52
2022-08-08T01:48:48.790Z,100736.52
2022-08-08T01:52:04.654Z,100733.60
2022-08-08T01:55:18.789Z,100739.80
2022-08-08T01:58:16.668Z,100741.23
2022-08-08T02:00:59.863Z,100741.96
2022-08-08T02:03:56.060Z,100740.80
2022-08-08T02:06:43.811Z,100742.82
2022-08-08T02:10:01.757Z,100747.88
2022-08-08T02:12:26.150Z,100748.46
2022-08-08T02:15:03.648Z,100747.07
2022-08-08T02:17:47.178Z,100749.23
2022-08-08T02:21:01.549Z,100746.44
2022-08-08T02:23:31.643Z,100754.22
2022-08-08T02:26:10.019Z,100755.14
2022-08-08T02:28:53.831Z,100757.20
2022-08-08T02:31:58.390Z,100759.83
2022-08-08T02:35:08.855Z,100762.27
2022-08-08T02:41:18.017Z,100765.42
2022-08-08T02:44:44.904Z,100768.08
2022-08-08T02:47:56.293Z,100771.02
2022-08-08T02:50:56.931Z,100774.68
2022-08-08T02:53:50.872Z,100776.15
2022-08-08T02:56:51.177Z,100779.76
2022-08-08T03:00:26.706Z,100783.09
2022-08-08T03:05:01.384Z,100784.39
2022-08-08T03:07:07.170Z,100783.44
2022-08-08T03:10:33.793Z,100784.41
2022-08-08T03:15:56.683Z,100789.33
2022-08-08T03:16:48.641Z,100792.33
2022-08-08T03:19:30.419Z,100794.67
2022-08-08T03:21:59.604Z,100796.80
2022-08-08T03:24:29.286Z,100793.79
2022-08-08T03:27:07.932Z,100798.23
2022-08-08T03:29:55.032Z,100797.05
2022-08-08T03:32:47.295Z,100799.55
2022-08-08T03:35:24.307Z,100799.77
2022-08-08T03:38:00.031Z,100796.38
2022-08-08T03:40:52.004Z,100801.46
2022-08-08T03:43:21.632Z,100800.58
2022-08-08T03:46:06.326Z,100807.48
2022-08-08T03:49:31.029Z,100811.80
2022-08-08T03:51:50.484Z,100807.27
2022-08-08T03:54:40.814Z,100808.33
2022-08-08T03:58:35.512Z,100812.02
2022-08-08T04:00:07.647Z,100813.05
2022-08-08T04:02:47.383Z,100816.06
2022-08-08T04:05:27.380Z,100817.51
2022-08-08T04:07:58.947Z,100812.22
2022-08-08T04:10:32.895Z,100815.38
2022-08-08T04:13:17.249Z,100814.96
2022-08-08T04:16:03.925Z,100818.28
2022-08-08T04:18:41.900Z,100821.56
2022-08-08T04:21:14.995Z,100825.57
2022-08-08T04:24:19.142Z,100827.19
2022-08-08T04:26:57.260Z,100826.92
2022-08-08T04:29:33.431Z,100826.37
2022-08-08T04:32:10.498Z,100826.41
2022-08-08T04:34:49.604Z,100829.33
2022-08-08T04:37:32.326Z,100827.79
2022-08-08T04:40:07.455Z,100831.23
2022-08-08T04:42:46.629Z,100828.66
2022-08-08T04:45:28.854Z,100833.11
2022-08-08T04:48:00.430Z,100835.86
2022-08-08T04:50:38.506Z,100837.08
2022-08-08T04:56:55.975Z,100848.17
2022-08-08T04:59:42.511Z,100855.63
2022-08-08T05:02:14.625Z,100854.23
2022-08-08T05:04:49.990Z,100854.04
2022-08-08T05:07:19.359Z,100854.89
2022-08-08T05:09:49.215Z,100853.70
2022-08-08T05:12:21.575Z,100855.83
2022-08-08T05:14:58.923Z,100860.74
2022-08-08T05:17:53.387Z,100863.90
2022-08-08T05:20:19.912Z,100863.55
2022-08-08T05:22:53.672Z,100863.33
2022-08-08T05:25:25.444Z,100863.71
2022-08-08T05:28:10.592Z,100865.15
2022-08-08T05:30:41.576Z,100868.79
2022-08-08T05:33:17.923Z,100871.54
2022-08-08T05:35:53.957Z,100874.27
2022-08-08T05:38:31.619Z,100877.30
2022-08-08T05:41:04.525Z,100879.67
2022-08-08T05:43:39.561Z,100880.92
2022-08-08T05:46:28.805Z,100884.43
2022-08-08T05:49:11.417Z,100885.35
2022-08-08T05:51:48.620Z,100887.78
2022-08-08T05:54:27.653Z,100889.32
2022-08-08T05:57:21.043Z,100888.84
2022-08-08T06:00:24.958Z,100895.70
2022-08-08T06:03:17.608Z,100899.64
2022-08-08T06:05:59.465Z,100903.77
2022-08-08T06:08:35.614Z,100901.26
2022-08-08T06:11:07.078Z,100900.70
2022-08-08T06:13:47.414Z,100906.39
2022-08-08T06:16:27.384Z,100910.78
2022-08-08T06:19:07.241Z,100909.34
2022-08-08T06:21:51.852Z,100914.96
2022-08-08T06:24:30.652Z,100915.95
2022-08-08T06:27:13.094Z,100911.34
2022-08-08T06:30:00.139Z,100920.42
2022-08-08T06:32:32.205Z,100925.99
2022-08-08T06:36:06.178Z,100925.98
2022-08-08T06:38:09.306Z,100924.40
2022-08-08T06:40:56.212Z,100924.91
2022-08-08T06:43:35.646Z,100923.95
2022-08-08T06:46:08.629Z,100918.47
2022-08-08T06:48:44.032Z,100913.56
2022-08-08T06:51:16.765Z,100914.66
2022-08-08T06:53:51.196Z,100908.80
2022-08-08T06:56:26.342Z,100910.17
2022-08-08T06:59:00.879Z,100911.38
2022-08-08T07:02:17.158Z,100910.64
2022-08-08T07:04:49.561Z,100909.65
2022-08-08T07:07:27.816Z,100911.75
2022-08-08T07:10:08.169Z,100908.34
2022-08-08T07:12:43.251Z,100906.81
2022-08-08T07:15:31.839Z,100907.10
2022-08-08T07:18:35.645Z,100909.33
2022-08-08T07:21:18.710Z,100914.90
2022-08-08T07:23:57.498Z,100916.48
2022-08-08T07:26:38.629Z,100920.19
2022-08-08T07:29:20.270Z,100920.31
2022-08-08T07:31:58.220Z,100917.98
2022-08-08T07:34:31.633Z,100915.75
2022-08-08T07:37:11.997Z,100913.76
2022-08-08T07:39:45.819Z,100912.77
2022-08-08T07:42:33.302Z,100909.19
2022-08-08T07:45:03.839Z,100905.52
2022-08-08T07:47:38.947Z,100910.11
2022-08-08T07:50:10.557Z,100909.85
2022-08-08T07:52:44.415Z,100911.94
2022-08-08T07:55:23.435Z,100911.05
2022-08-08T07:58:21.042Z,100908.11
2022-08-08T08:00:52.791Z,100915.64
2022-08-08T08:03:30.722Z,100913.73
2022-08-08T08:06:12.985Z,100910.83
2022-08-08T08:08:53.657Z,100910.08
2022-08-08T08:11:23.953Z,100914.03
2022-08-08T08:14:08.245Z,100909.40
2022-08-08T08:16:41.535Z,100911.48
2022-08-08T08:19:19.756Z,100908.86
2022-08-08T08:21:57.845Z,100909.10
2022-08-08T08:24:30.528Z,100908.38
2022-08-08T08:27:02.675Z,100903.28
2022-08-08T08:29:33.126Z,100902.09
2022-08-08T08:32:06.226Z,100907.52
2022-08-08T08:34:43.367Z,100905.60
2022-08-08T08:37:30.401Z,100904.36
2022-08-08T08:40:02.870Z,100907.59
2022-08-08T08:42:35.799Z,100906.65
2022-08-08T08:45:10.225Z,100904.89
2022-08-08T08:47:54.310Z,100906.74
2022-08-08T08:50:32.667Z,100904.41
2022-08-08T08:53:54.924Z,100899.53
2022-08-08T08:56:02.014Z,100899.20
2022-08-08T08:58:35.123Z,100897.86
2022-08-08T09:01:13.403Z,100891.73
2022-08-08T09:03:51.157Z,100890.05
2022-08-08T09:06:28.463Z,100887.32
2022-08-08T09:09:07.439Z,100887.65
2022-08-08T09:12:02.123Z,100892.54
2022-08-08T09:14:42.085Z,100885.16
2022-08-08T09:17:18.305Z,100882.58
2022-08-08T09:22:02.628Z,100882.73
2022-08-08T09:22:39.507Z,100879.10
2022-08-08T09:25:22.669Z,100875.95
2022-08-08T09:27:57.526Z,100872.73
2022-08-08T09:30:31.433Z,100869.50
2022-08-08T09:33:53.984Z,100868.84
2022-08-08T09:36:09.356Z,100866.65
2022-08-08T09:38:51.966Z,100862.05
2022-08-08T09:42:14.628Z,100852.94
2022-08-08T09:44:33.867Z,100850.26
2022-08-08T09:48:02.643Z,100842.52
2022-08-08T09:50:01.364Z,100840.24
2022-08-08T09:52:57.601Z,100846.86
2022-08-08T09:55:31.618Z,100848.58
2022-08-08T09:58:26.154Z,100839.46
2022-08-08T10:01:14.310Z,100832.02
2022-08-08T10:03:56.090Z,100831.52
2022-08-08T10:06:29.681Z,100824.83
2022-08-08T10:08:59.942Z,100824.98
2022-08-08T10:12:26.859Z,100823.93
2022-08-08T10:14:28.318Z,100823.48
2022-08-08T10:18:03.502Z,100816.52
2022-08-08T10:20:00.026Z,100815.77
2022-08-08T10:22:30.596Z,100809.39
2022-08-08T10:25:16.726Z,100802.28
2022-08-08T10:27:52.174Z,100797.81
2022-08-08T10:31:00.506Z,100792.67
2022-08-08T10:33:17.968Z,100794.16
2022-08-08T10:36:08.437Z,100786.40
2022-08-08T10:38:55.215Z,100787.63
2022-08-08T10:41:35.355Z,100787.27
2022-08-08T10:44:20.202Z,100782.42
2022-08-08T10:46:50.083Z,100779.20
2022-08-08T10:49:26.943Z,100771.33
2022-08-08T10:52:29.978Z,100767.39
2022-08-08T10:55:06.182Z,100767.10
2022-08-08T10:57:50.012Z,100765.70
2022-08-08T11:00:25.621Z,100760.76
2022-08-08T11:02:56.291Z,100754.40
2022-08-08T11:05:27.558Z,100750.75
2022-08-08T11:08:37.138Z,100750.77
2022-08-08T11:11:07.983Z,100752.83
2022-08-08T11:13:59.977Z,100749.33
2022-08-08T11:16:34.383Z,100747.80
2022-08-08T11:19:05.726Z,100744.02
2022-08-08T11:21:45.119Z,100745.57
2022-08-08T11:24:27.346Z,100740.73
2022-08-08T11:27:19.150Z,100736.98
2022-08-08T11:30:19.485Z,100738.48
2022-08-08T11:32:42.507Z,100735.16
2022-08-08T11:35:27.844Z,100731.21
2022-08-08T11:38:38.560Z,100732.14
2022-08-08T11:40:56.387Z,100726.44
2022-08-08T11:43:25.936Z,100721.92
2022-08-08T11:46:13.886Z,100724.74
2022-08-08T11:48:48.684Z,100723.37
2022-08-08T11:51:29.646Z,100723.88
2022-08-08T11:54:02.577Z,100728.95
2022-08-08T11:56:35.594Z,100721.33
2022-08-08T11:59:12.373Z,100723.38
2022-08-08T12:01:42.072Z,100723.13
2022-08-08T12:04:11.664Z,100715.30
2022-08-08T12:06:42.941Z,100714.86
2022-08-08T12:09:17.132Z,100712.70
2022-08-08T12:11:49.452Z,100713.42
2022-08-08T12:14:29.282Z,100712.95
2022-08-08T12:16:58.897Z,100706.63
2022-08-08T12:19:37.730Z,100715.63
2022-08-08T12:22:20.519Z,100712.83
2022-08-08T12:24:53.868Z,100708.73
2022-08-08T12:27:26.571Z,100709.02
2022-08-08T12:29:59.314Z,100708.00
2022-08-08T12:32:31.182Z,100709.45
2022-08-08T12:35:13.687Z,100713.02
2022-08-08T12:38:01.988Z,100712.63
2022-08-08T12:40:54.730Z,100707.27
2022-08-08T12:43:48.083Z,100711.77
2022-08-08T12:46:26.738Z,100705.95
2022-08-08T12:51:58.646Z,100699.45
2022-08-08T12:54:35.697Z,100695.78
2022-08-08T12:57:17.137Z,100694.77
2022-08-08T13:00:04.420Z,100693.67
2022-08-08T13:02:42.004Z,100694.67
2022-08-08T13:05:26.707Z,100693.57
2022-08-08T13:08:17.960Z,100684.98
2022-08-08T13:10:56.109Z,100687.44
2022-08-08T13:13:35.080Z,100682.22
2022-08-08T13:16:26.038Z,100686.52
2022-08-08T13:19:06.587Z,100678.43
2022-08-08T13:21:53.251Z,100682.58
2022-08-08T13:24:40.890Z,100680.42
2022-08-08T13:28:00.940Z,100677.88
2022-08-08T13:30:30.830Z,100677.02
2022-08-08T13:33:01.266Z,100674.78
2022-08-08T13:35:45.785Z,100673.33
2022-08-08T13:38:25.031Z,100672.48
2022-08-08T13:41:00.138Z,100670.11
2022-08-08T13:43:29.731Z,100670.02
2022-08-08T13:46:26.686Z,100667.10
2022-08-08T13:49:11.579Z,100662.95
2022-08-08T13:52:01.684Z,100659.81
2022-08-08T13:54:35.796Z,100659.17
2022-08-08T13:57:12.846Z,100657.16
2022-08-08T13:59:47.950Z,100654.14
2022-08-08T14:02:21.731Z,100657.51
2022-08-08T14:04:57.219Z,100654.47
2022-08-08T14:07:29.793Z,100653.44
2022-08-08T14:10:11.773Z,100653.81
2022-08-08T14:12:43.838Z,100653.03
2022-08-08T14:15:31.404Z,100652.09
2022-08-08T14:18:36.841Z,100650.02
2022-08-08T14:21:08.175Z,100647.90
2022-08-08T14:24:06.349Z,100643.09
2022-08-08T14:26:42.665Z,100636.59
2022-08-08T14:29:30.027Z,100635.18
2022-08-08T14:32:09.213Z,100637.65
2022-08-08T14:34:45.406Z,100633.95
2022-08-08T14:37:18.944Z,100635.17
2022-08-08T14:39:54.207Z,100632.54
2022-08-08T14:42:54.509Z,100626.55
2022-08-08T14:45:28.948Z,100627.82
2022-08-08T14:48:05.613Z,100625.77
2022-08-08T14:50:39.274Z,100622.51
2022-08-08T14:53:14.659Z,100618.76
2022-08-08T14:55:45.003Z,100622.45
2022-08-08T14:58:16.693Z,100624.05
2022-08-08T15:00:51.903Z,100620.34
2022-08-08T15:03:22.392Z,100620.48
2022-08-08T15:05:53.701Z,100607.83
2022-08-08T15:08:35.640Z,100612.38
2022-08-08T15:11:10.736Z,100610.14
2022-08-08T15:14:01.041Z,100607.59
2022-08-08T15:16:34.391Z,100598.24
2022-08-08T15:19:04.813Z,100605.16
2022-08-08T15:21:34.358Z,100603.91
2022-08-08T15:24:13.835Z,100604.85
2022-08-08T15:26:43.967Z,100608.48
2022-08-08T15:29:24.541Z,100609.13
2022-08-08T15:32:17.834Z,100609.91
2022-08-08T15:34:46.203Z,100611.95
2022-08-08T15:37:17.270Z,100616.39
2022-08-08T15:39:49.243Z,100615.22
2022-08-08T15:42:41.712Z,100617.14
2022-08-08T15:45:11.076Z,100617.84
2022-08-08T15:47:40.399Z,100614.37
2022-08-08T15:50:49.507Z,100613.69
2022-08-08T15:53:21.912Z,100609.70
2022-08-08T15:55:51.599Z,100613.15
2022-08-08T15:58:21.166Z,100614.27
2022-08-08T16:00:57.645Z,100611.25
2022-08-08T16:03:26.857Z,100614.63
2022-08-08T16:06:01.825Z,100613.92
2022-08-08T16:08:31.756Z,100614.91
2022-08-08T16:13:09.300Z,100612.63
2022-08-08T16:13:53.360Z,100617.22
2022-08-08T16:16:23.108Z,100613.80
2022-08-08T16:18:56.805Z,100613.49
2022-08-08T16:21:31.967Z,100616.27
2022-08-08T16:24:03.113Z,100616.97
2022-08-08T16:26:40.461Z,100617.20
2022-08-08T16:29:37.020Z,100618.05
2022-08-08T16:32:12.967Z,100620.27
2022-08-08T16:34:44.521Z,100628.63
2022-08-08T16:37:16.202Z,100628.98
2022-08-08T16:40:01.560Z,100629.86
2022-08-08T16:42:34.832Z,100638.44
2022-08-08T16:45:11.185Z,100643.13
2022-08-08T16:47:59.628Z,100639.20
2022-08-08T16:50:29.066Z,100641.51
2022-08-08T16:55:22.598Z,100641.71
2022-08-08T16:56:14.370Z,100645.73
2022-08-08T16:58:45.328Z,100650.31
2022-08-08T17:01:27.037Z,100652.23
2022-08-08T17:04:10.000Z,100656.96
2022-08-08T17:06:43.791Z,100659.70
2022-08-08T17:09:15.895Z,100670.98
2022-08-08T17:11:56.607Z,100668.52
2022-08-08T17:14:34.239Z,100668.85
2022-08-08T17:17:05.969Z,100674.65
2022-08-08T17:19:55.211Z,100685.18
2022-08-08T17:22:39.076Z,100684.92
2022-08-08T17:25:12.018Z,100693.89
2022-08-08T17:27:46.250Z,100695.79
2022-08-08T17:30:16.945Z,100697.45
2022-08-08T17:34:36.882Z,100705.98
2022-08-08T17:35:53.408Z,100705.20
2022-08-08T17:38:24.643Z,100713.20
2022-08-08T17:41:00.085Z,100713.16
2022-08-08T17:43:31.344Z,100713.30
2022-08-08T17:46:37.248Z,100726.27
2022-08-08T17:49:08.364Z,100726.41
2022-08-08T17:51:40.372Z,100736.04
2022-08-08T17:54:22.528Z,100740.77
2022-08-08T17:57:03.111Z,100740.77
2022-08-08T17:59:45.839Z,100744.24
2022-08-08T18:02:21.219Z,100742.96
2022-08-08T18:04:51.582Z,100748.03
2022-08-08T18:08:15.453Z,100753.56
2022-08-08T18:23:07.193Z,100761.77
2022-08-08T18:25:46.082Z,100764.13
2022-08-08T18:28:16.518Z,100764.84
2022-08-08T18:30:54.123Z,100769.64
2022-08-08T18:34:11.508Z,100777.79
2022-08-08T18:36:28.906Z,100775.60
2022-08-08T18:39:10.856Z,100770.65
2022-08-08T18:41:58.080Z,100773.92
2022-08-08T18:44:39.141Z,100776.13
2022-08-08T18:47:39.112Z,100774.13
2022-08-08T18:51:42.049Z,100778.68
2022-08-08T18:54:22.763Z,100780.33
2022-08-08T18:57:43.456Z,100782.17
2022-08-08T19:00:25.463Z,100788.74
2022-08-08T19:03:06.906Z,100792.48
2022-08-08T19:05:51.523Z,100791.48
2022-08-08T19:08:29.156Z,100789.61
2022-08-08T19:11:17.319Z,100794.02
2022-08-08T19:14:04.552Z,100796.61
2022-08-08T19:16:34.847Z,100797.65
2022-08-08T19:19:14.055Z,100796.95
2022-08-08T19:21:48.590Z,100796.42
2022-08-08T19:24:43.852Z,100791.31
2022-08-08T19:27:57.047Z,100796.52
2022-08-08T19:30:29.769Z,100794.92
2022-08-08T19:33:17.272Z,100794.29
2022-08-08T19:36:18.147Z,100788.26
2022-08-08T19:39:00.894Z,100790.61
2022-08-08T19:41:39.762Z,100790.64
2022-08-08T19:44:45.448Z,100794.00
2022-08-08T19:47:26.803Z,100791.73
2022-08-08T19:50:26.529Z,100788.23
2022-08-08T19:52:59.915Z,100786.77
2022-08-08T19:55:49.614Z,100785.61
2022-08-08T19:58:31.261Z,100784.98
2022-08-08T20:01:21.451Z,100785.30
2022-08-08T20:04:04.553Z,100786.89
2022-08-08T20:06:46.697Z,100788.39
2022-08-08T20:09:22.637Z,100786.77
2022-08-08T20:12:11.695Z,100788.60
2022-08-08T20:14:51.743Z,100788.49
2022-08-08T20:17:33.196Z,100787.33
2022-08-08T20:20:30.704Z,100782.00
2022-08-08T20:23:04.363Z,100782.15
2022-08-08T20:25:47.761Z,100776.86
2022-08-08T20:28:32.767Z,100778.42
2022-08-08T20:31:10.634Z,100778.60
2022-08-08T20:34:03.632Z,100782.15
2022-08-08T20:36:49.470Z,100792.50
2022-08-08T20:39:21.293Z,100797.00
2022-08-08T20:41:53.266Z,100794.90
2022-08-08T20:44:27.768Z,100790.98
2022-08-08T20:47:23.096Z,100800.23
2022-08-08T20:49:57.698Z,100798.33
2022-08-08T20:52:57.096Z,100803.29
2022-08-08T20:55:52.259Z,100798.70
2022-08-08T20:58:29.836Z,100799.39
2022-08-08T21:01:19.641Z,100801.86
2022-08-08T21:04:05.767Z,100805.80
2022-08-08T21:06:53.427Z,100804.19
2022-08-08T21:10:02.397Z,100802.87
2022-08-08T21:12:32.274Z,100802.09
2022-08-08T21:15:10.804Z,100800.59
2022-08-08T21:17:56.039Z,100803.09
2022-08-08T21:20:34.065Z,100800.92
2022-08-08T21:23:09.163Z,100800.19
2022-08-08T21:25:39.760Z,100800.66
2022-08-08T21:28:15.917Z,100799.20
2022-08-08T21:30:52.558Z,100796.32
2022-08-08T21:33:22.201Z,100800.08
2022-08-08T21:36:14.923Z,100799.20
2022-08-08T21:38:44.028Z,100800.27
2022-08-08T21:41:18.500Z,100797.92
2022-08-08T21:44:07.373Z,100795.89
2022-08-08T21:48:05.106Z,100791.20
2022-08-08T21:49:55.027Z,100789.55
2022-08-08T21:54:31.358Z,100791.48
2022-08-08T21:56:18.101Z,100790.80
2022-08-08T21:58:09.622Z,100789.01
2022-08-08T22:00:44.871Z,100790.45
2022-08-08T22:03:17.890Z,100794.59
2022-08-08T22:05:49.428Z,100798.27
2022-08-08T22:08:24.006Z,100798.30
2022-08-08T22:10:56.721Z,100798.27
2022-08-08T22:13:50.002Z,100798.77
2022-08-08T22:16:24.007Z,100791.91
2022-08-08T22:18:56.025Z,100788.14
2022-08-08T22:21:34.502Z,100794.96
2022-08-08T22:24:05.331Z,100798.51
2022-08-08T22:26:35.886Z,100799.27
2022-08-08T22:30:01.400Z,100795.54
2022-08-08T22:32:15.890Z,100797.11
2022-08-08T22:34:50.734Z,100801.23
2022-08-08T22:37:48.799Z,100806.13
2022-08-08T22:43:11.345Z,100802.70
2022-08-08T22:45:46.611Z,100798.18
2022-08-08T22:48:35.571Z,100799.58
2022-08-08T22:51:07.869Z,100797.13
2022-08-08T22:54:34.178Z,100800.73
2022-08-08T22:56:28.228Z,100795.73
2022-08-08T22:59:00.215Z,100799.08
2022-08-08T23:02:02.173Z,100797.59
2022-08-08T23:04:48.785Z,100796.58
2022-08-08T23:07:52.160Z,100794.19
2022-08-08T23:10:53.020Z,100791.94
2022-08-08T23:16:42.199Z,100793.92
2022-08-08T23:18:12.432Z,100791.99
2022-08-08T23:20:44.350Z,100790.02
2022-08-08T23:23:25.917Z,100792.64
2022-08-08T23:25:56.380Z,100790.10
2022-08-08T23:28:26.275Z,100787.40
2022-08-08T23:30:56.932Z,100787.20
2022-08-08T23:34:15.261Z,100782.87
2022-08-08T23:36:30.625Z,100786.55
2022-08-08T23:39:03.147Z,100788.27
2022-08-08T23:41:45.927Z,100794.48
2022-08-08T23:44:19.459Z,100794.80
2022-08-08T23:48:59.782Z,100800.15
2022-08-08T23:49:49.643Z,100798.04
2022-08-08T23:52:33.575Z,100795.13
2022-08-08T23:55:22.358Z,100792.44
2022-08-08T23:57:54.579Z,100793.15
